AIQ555 VYMD-VTBD
Flight info
| Callsign | AIQ555 |
|---|---|
| Flight time | 1h 24m |
| Altitude | 37000 |
| Route | DOGIP1S DOGIP DCT MOXIS B463 BGO L507 IGONI DCT WEHHA WEHHA3A |
| Aircraft | A320/M-SDE3FGHIRWY/LB1 |
Departure
| Time | 2026-04-25 17:29 |
|---|---|
| Airport | Mandalay International Airport (VYMD) |
Arrival
| Time | 2026-04-25 18:54 |
|---|---|
| Airport | Don Mueang International Airport (VTBD) |
| Time | Latitude | Longitude | Altitude | Speed | Heading |
|---|---|---|---|---|---|
| 2026-04-25 16:55 | 21.70501 | 95.97142 | 290 ft | 0 kts | 269° |
| 2026-04-25 17:20 | 21.70501 | 95.97143 | 293 ft | 1 kts | 269° |
| 2026-04-25 17:21 | 21.70501 | 95.97160 | 298 ft | 3 kts | 271° |
| 2026-04-25 17:21 | 21.70500 | 95.97182 | 291 ft | 3 kts | 278° |
| 2026-04-25 17:21 | 21.70496 | 95.97203 | 293 ft | 3 kts | 288° |
| 2026-04-25 17:21 | 21.70492 | 95.97213 | 292 ft | 1 kts | 290° |
| 2026-04-25 17:22 | 21.70492 | 95.97214 | 292 ft | 0 kts | 290° |
| 2026-04-25 17:24 | 21.70494 | 95.97213 | 290 ft | 1 kts | 311° |
| 2026-04-25 17:24 | 21.70536 | 95.97215 | 291 ft | 12 kts | 0° |
| 2026-04-25 17:25 | 21.70651 | 95.97205 | 291 ft | 19 kts | 343° |
| 2026-04-25 17:25 | 21.70778 | 95.97177 | 292 ft | 19 kts | 352° |
| 2026-04-25 17:25 | 21.70853 | 95.97266 | 288 ft | 18 kts | 73° |
| 2026-04-25 17:25 | 21.70902 | 95.97380 | 288 ft | 17 kts | 16° |
| 2026-04-25 17:26 | 21.71020 | 95.97370 | 287 ft | 18 kts | 353° |
| 2026-04-25 17:26 | 21.71148 | 95.97348 | 287 ft | 19 kts | 351° |
| 2026-04-25 17:26 | 21.71286 | 95.97324 | 287 ft | 21 kts | 351° |
| 2026-04-25 17:26 | 21.71434 | 95.97298 | 286 ft | 22 kts | 351° |
| 2026-04-25 17:27 | 21.71586 | 95.97271 | 286 ft | 23 kts | 351° |
| 2026-04-25 17:27 | 21.71750 | 95.97243 | 286 ft | 24 kts | 350° |
| 2026-04-25 17:27 | 21.71914 | 95.97214 | 285 ft | 20 kts | 359° |
| 2026-04-25 17:27 | 21.71955 | 95.97231 | 285 ft | 18 kts | 47° |
| 2026-04-25 17:28 | 21.71985 | 95.97388 | 286 ft | 10 kts | 99° |
| 2026-04-25 17:28 | 21.71942 | 95.97423 | 287 ft | 0 kts | 170° |
| 2026-04-25 17:28 | 21.71940 | 95.97423 | 287 ft | 3 kts | 170° |
| 2026-04-25 17:28 | 21.71714 | 95.97461 | 288 ft | 70 kts | 171° |
| 2026-04-25 17:29 | 21.71020 | 95.97583 | 286 ft | 129 kts | 170° |
| 2026-04-25 17:29 | 21.69969 | 95.97775 | 302 ft | 174 kts | 168° |
| 2026-04-25 17:29 | 21.68773 | 95.98012 | 893 ft | 174 kts | 171° |
| 2026-04-25 17:29 | 21.67576 | 95.98233 | 1600 ft | 175 kts | 172° |
| 2026-04-25 17:30 | 21.66760 | 95.98383 | 1886 ft | 184 kts | 171° |
| 2026-04-25 17:30 | 21.64939 | 95.98718 | 2232 ft | 216 kts | 171° |
| 2026-04-25 17:30 | 21.63370 | 95.99009 | 2569 ft | 240 kts | 171° |
| 2026-04-25 17:30 | 21.61687 | 95.99321 | 3136 ft | 252 kts | 171° |
| 2026-04-25 17:31 | 21.59926 | 95.99651 | 3927 ft | 256 kts | 171° |
| 2026-04-25 17:31 | 21.58177 | 95.99977 | 4676 ft | 261 kts | 171° |
| 2026-04-25 17:31 | 21.56368 | 96.00315 | 5402 ft | 266 kts | 171° |
| 2026-04-25 17:31 | 21.54520 | 96.00659 | 6145 ft | 270 kts | 171° |
| 2026-04-25 17:32 | 21.52652 | 96.01007 | 6864 ft | 275 kts | 171° |
| 2026-04-25 17:32 | 21.50775 | 96.01357 | 7589 ft | 278 kts | 171° |
| 2026-04-25 17:32 | 21.48847 | 96.01716 | 8324 ft | 282 kts | 171° |
| 2026-04-25 17:32 | 21.46896 | 96.02078 | 9065 ft | 286 kts | 171° |
| 2026-04-25 17:33 | 21.44919 | 96.02441 | 9789 ft | 290 kts | 171° |
| 2026-04-25 17:33 | 21.42917 | 96.02809 | 10207 ft | 305 kts | 171° |
| 2026-04-25 17:33 | 21.40738 | 96.03188 | 10404 ft | 327 kts | 172° |
| 2026-04-25 17:33 | 21.38450 | 96.03553 | 10888 ft | 336 kts | 173° |
| 2026-04-25 17:34 | 21.36113 | 96.03910 | 11512 ft | 340 kts | 173° |
| 2026-04-25 17:34 | 21.33742 | 96.04270 | 12131 ft | 345 kts | 173° |
| 2026-04-25 17:34 | 21.31377 | 96.04628 | 12752 ft | 349 kts | 173° |
| 2026-04-25 17:34 | 21.28954 | 96.04998 | 13381 ft | 353 kts | 173° |
| 2026-04-25 17:35 | 21.26505 | 96.05377 | 13962 ft | 357 kts | 173° |
| 2026-04-25 17:35 | 21.24026 | 96.05765 | 14509 ft | 360 kts | 173° |
| 2026-04-25 17:35 | 21.21521 | 96.06158 | 15049 ft | 364 kts | 173° |
| 2026-04-25 17:35 | 21.19007 | 96.06554 | 15589 ft | 367 kts | 174° |
| 2026-04-25 17:36 | 21.16498 | 96.06946 | 16121 ft | 370 kts | 174° |
| 2026-04-25 17:36 | 21.13932 | 96.07345 | 16673 ft | 374 kts | 174° |
| 2026-04-25 17:36 | 21.11342 | 96.07749 | 17198 ft | 377 kts | 174° |
| 2026-04-25 17:36 | 21.08731 | 96.08157 | 17724 ft | 380 kts | 174° |
| 2026-04-25 17:37 | 21.06109 | 96.08673 | 18218 ft | 386 kts | 166° |
| 2026-04-25 17:37 | 21.03585 | 96.09738 | 18648 ft | 392 kts | 159° |
| 2026-04-25 17:37 | 21.01094 | 96.10881 | 19072 ft | 395 kts | 160° |
| 2026-04-25 17:37 | 20.98559 | 96.12048 | 19489 ft | 399 kts | 160° |
| 2026-04-25 17:38 | 20.95996 | 96.13234 | 19910 ft | 402 kts | 160° |
| 2026-04-25 17:38 | 20.95127 | 96.13637 | 20050 ft | 403 kts | 160° |
| 2026-04-25 17:38 | 20.90799 | 96.15645 | 20728 ft | 409 kts | 160° |
| 2026-04-25 17:38 | 20.88208 | 96.16846 | 21121 ft | 413 kts | 160° |
| 2026-04-25 17:39 | 20.85564 | 96.18075 | 21511 ft | 416 kts | 160° |
| 2026-04-25 17:39 | 20.82891 | 96.19316 | 21894 ft | 419 kts | 161° |
| 2026-04-25 17:39 | 20.80203 | 96.20565 | 22289 ft | 422 kts | 161° |
| 2026-04-25 17:39 | 20.77489 | 96.21823 | 22678 ft | 426 kts | 161° |
| 2026-04-25 17:40 | 20.74750 | 96.23091 | 23060 ft | 429 kts | 161° |
| 2026-04-25 17:40 | 20.72001 | 96.24366 | 23459 ft | 432 kts | 161° |
| 2026-04-25 17:40 | 20.69267 | 96.25635 | 23763 ft | 435 kts | 161° |
| 2026-04-25 17:40 | 20.66468 | 96.26933 | 24069 ft | 438 kts | 161° |
| 2026-04-25 17:41 | 20.63660 | 96.28237 | 24373 ft | 441 kts | 161° |
| 2026-04-25 17:41 | 20.60833 | 96.29546 | 24682 ft | 444 kts | 161° |
| 2026-04-25 17:41 | 20.57986 | 96.30863 | 24995 ft | 446 kts | 161° |
| 2026-04-25 17:41 | 20.55124 | 96.32189 | 25295 ft | 449 kts | 161° |
| 2026-04-25 17:42 | 20.52285 | 96.33506 | 25593 ft | 452 kts | 161° |
| 2026-04-25 17:42 | 20.49384 | 96.34850 | 25889 ft | 454 kts | 161° |
| 2026-04-25 17:42 | 20.46470 | 96.36195 | 26179 ft | 457 kts | 161° |
| 2026-04-25 17:42 | 20.43546 | 96.37541 | 26474 ft | 459 kts | 161° |
| 2026-04-25 17:43 | 20.40605 | 96.38897 | 26748 ft | 461 kts | 161° |
| 2026-04-25 17:43 | 20.37639 | 96.40266 | 27044 ft | 464 kts | 161° |
| 2026-04-25 17:43 | 20.34708 | 96.41620 | 27300 ft | 466 kts | 161° |
| 2026-04-25 17:43 | 20.31708 | 96.43006 | 27585 ft | 468 kts | 161° |
| 2026-04-25 17:44 | 20.28706 | 96.44392 | 27845 ft | 470 kts | 161° |
| 2026-04-25 17:44 | 20.26710 | 96.45313 | 28019 ft | 472 kts | 161° |
| 2026-04-25 17:44 | 20.22658 | 96.47182 | 28391 ft | 476 kts | 161° |
| 2026-04-25 17:44 | 20.19644 | 96.48569 | 28657 ft | 478 kts | 161° |
| 2026-04-25 17:45 | 20.16579 | 96.49977 | 28928 ft | 480 kts | 161° |
| 2026-04-25 17:45 | 20.15542 | 96.50453 | 29020 ft | 481 kts | 161° |
| 2026-04-25 17:45 | 20.11448 | 96.52331 | 29386 ft | 484 kts | 161° |
| 2026-04-25 17:45 | 20.08338 | 96.53758 | 29654 ft | 487 kts | 161° |
| 2026-04-25 17:46 | 20.04195 | 96.55662 | 30020 ft | 489 kts | 161° |
| 2026-04-25 17:46 | 20.01056 | 96.57103 | 30213 ft | 492 kts | 161° |
| 2026-04-25 17:46 | 19.98928 | 96.58080 | 30356 ft | 493 kts | 161° |
| 2026-04-25 17:46 | 19.95808 | 96.59510 | 30569 ft | 495 kts | 161° |
| 2026-04-25 17:47 | 19.92637 | 96.60962 | 30787 ft | 497 kts | 161° |
| 2026-04-25 17:47 | 19.89453 | 96.62418 | 31008 ft | 498 kts | 161° |
| 2026-04-25 17:47 | 19.86259 | 96.63882 | 31246 ft | 499 kts | 161° |
| 2026-04-25 17:47 | 19.83069 | 96.65349 | 31573 ft | 499 kts | 161° |
| 2026-04-25 17:48 | 19.76697 | 96.68275 | 32231 ft | 498 kts | 162° |
| 2026-04-25 17:48 | 19.73515 | 96.69731 | 32577 ft | 497 kts | 162° |
| 2026-04-25 17:48 | 19.70342 | 96.71179 | 32893 ft | 496 kts | 162° |
| 2026-04-25 17:49 | 19.67211 | 96.72605 | 33175 ft | 496 kts | 162° |
| 2026-04-25 17:49 | 19.64039 | 96.74053 | 33501 ft | 495 kts | 162° |
| 2026-04-25 17:49 | 19.60874 | 96.75499 | 33838 ft | 494 kts | 162° |
| 2026-04-25 17:49 | 19.57707 | 96.76948 | 34137 ft | 493 kts | 162° |
| 2026-04-25 17:50 | 19.54562 | 96.78386 | 34442 ft | 492 kts | 162° |
| 2026-04-25 17:50 | 19.51454 | 96.79808 | 34729 ft | 490 kts | 162° |
| 2026-04-25 17:50 | 19.48321 | 96.81237 | 35011 ft | 488 kts | 162° |
| 2026-04-25 17:50 | 19.45200 | 96.82660 | 35279 ft | 487 kts | 162° |
| 2026-04-25 17:51 | 19.42088 | 96.84079 | 35549 ft | 485 kts | 162° |
| 2026-04-25 17:51 | 19.38974 | 96.85497 | 35809 ft | 485 kts | 162° |
| 2026-04-25 17:51 | 19.35872 | 96.86908 | 36040 ft | 484 kts | 162° |
| 2026-04-25 17:51 | 19.32811 | 96.88300 | 36257 ft | 483 kts | 162° |
| 2026-04-25 17:52 | 19.29721 | 96.89707 | 36508 ft | 481 kts | 162° |
| 2026-04-25 17:52 | 19.27680 | 96.90636 | 36680 ft | 481 kts | 162° |
| 2026-04-25 17:52 | 19.23572 | 96.92502 | 36931 ft | 479 kts | 162° |
| 2026-04-25 17:53 | 19.17493 | 96.95263 | 36963 ft | 476 kts | 162° |
| 2026-04-25 17:53 | 19.11400 | 96.98022 | 36962 ft | 475 kts | 162° |
| 2026-04-25 17:54 | 19.05321 | 97.00773 | 36962 ft | 475 kts | 162° |
| 2026-04-25 17:54 | 18.99221 | 97.03537 | 36964 ft | 475 kts | 162° |
| 2026-04-25 17:55 | 18.93179 | 97.06276 | 36959 ft | 475 kts | 162° |
| 2026-04-25 17:55 | 18.87092 | 97.09027 | 36967 ft | 475 kts | 162° |
| 2026-04-25 17:56 | 18.81002 | 97.11769 | 36968 ft | 475 kts | 161° |
| 2026-04-25 17:56 | 18.74907 | 97.14525 | 36959 ft | 476 kts | 161° |
| 2026-04-25 17:57 | 18.68863 | 97.17256 | 36965 ft | 476 kts | 161° |
| 2026-04-25 17:57 | 18.62773 | 97.19996 | 36969 ft | 476 kts | 161° |
| 2026-04-25 17:58 | 18.56663 | 97.22753 | 36969 ft | 476 kts | 161° |
| 2026-04-25 17:58 | 18.50565 | 97.25500 | 36969 ft | 476 kts | 161° |
| 2026-04-25 17:59 | 18.44497 | 97.28233 | 36977 ft | 476 kts | 161° |
| 2026-04-25 17:59 | 18.38391 | 97.30972 | 36965 ft | 476 kts | 162° |
| 2026-04-25 18:00 | 18.32326 | 97.33688 | 36969 ft | 476 kts | 161° |
| 2026-04-25 18:00 | 18.26221 | 97.36430 | 36952 ft | 476 kts | 161° |
| 2026-04-25 18:01 | 18.20121 | 97.39163 | 36950 ft | 476 kts | 161° |
| 2026-04-25 18:01 | 18.14038 | 97.41881 | 36955 ft | 477 kts | 161° |
| 2026-04-25 18:02 | 18.07929 | 97.44613 | 36956 ft | 477 kts | 161° |
| 2026-04-25 18:02 | 18.01812 | 97.47351 | 36959 ft | 477 kts | 161° |
| 2026-04-25 18:03 | 17.95731 | 97.50075 | 36959 ft | 477 kts | 161° |
| 2026-04-25 18:03 | 17.89619 | 97.52811 | 36947 ft | 476 kts | 161° |
| 2026-04-25 18:04 | 17.83543 | 97.55520 | 36949 ft | 476 kts | 161° |
| 2026-04-25 18:04 | 17.77428 | 97.58241 | 36952 ft | 476 kts | 161° |
| 2026-04-25 18:05 | 17.71312 | 97.60969 | 36939 ft | 476 kts | 161° |
| 2026-04-25 18:05 | 17.65209 | 97.63690 | 36941 ft | 476 kts | 161° |
| 2026-04-25 18:06 | 17.59247 | 97.66342 | 36923 ft | 476 kts | 161° |
| 2026-04-25 18:06 | 17.53175 | 97.69043 | 36929 ft | 476 kts | 161° |
| 2026-04-25 18:07 | 17.47064 | 97.71759 | 36936 ft | 476 kts | 161° |
| 2026-04-25 18:07 | 17.40960 | 97.74481 | 36939 ft | 476 kts | 161° |
| 2026-04-25 18:08 | 17.34857 | 97.77187 | 36936 ft | 476 kts | 161° |
| 2026-04-25 18:08 | 17.28758 | 97.79887 | 36929 ft | 476 kts | 161° |
| 2026-04-25 18:09 | 17.22661 | 97.82590 | 36920 ft | 476 kts | 161° |
| 2026-04-25 18:09 | 17.16606 | 97.85277 | 36919 ft | 475 kts | 161° |
| 2026-04-25 18:10 | 17.10508 | 97.87966 | 36919 ft | 475 kts | 161° |
| 2026-04-25 18:10 | 17.04405 | 97.90664 | 36928 ft | 475 kts | 161° |
| 2026-04-25 18:11 | 16.98355 | 97.93342 | 36915 ft | 474 kts | 161° |
| 2026-04-25 18:11 | 16.92254 | 97.96031 | 36912 ft | 474 kts | 161° |
| 2026-04-25 18:12 | 16.86164 | 97.98714 | 36901 ft | 475 kts | 160° |
| 2026-04-25 18:12 | 16.80070 | 98.01402 | 36903 ft | 475 kts | 160° |
| 2026-04-25 18:13 | 16.74006 | 98.04071 | 36900 ft | 476 kts | 160° |
| 2026-04-25 18:13 | 16.67902 | 98.06757 | 36913 ft | 476 kts | 160° |
| 2026-04-25 18:14 | 16.58735 | 98.10790 | 36915 ft | 476 kts | 160° |
| 2026-04-25 18:14 | 16.52673 | 98.13453 | 36906 ft | 475 kts | 160° |
| 2026-04-25 18:15 | 16.46562 | 98.16138 | 36912 ft | 475 kts | 160° |
| 2026-04-25 18:15 | 16.40465 | 98.18815 | 36912 ft | 475 kts | 160° |
| 2026-04-25 18:16 | 16.34371 | 98.21490 | 36927 ft | 475 kts | 160° |
| 2026-04-25 18:17 | 16.25265 | 98.25482 | 36924 ft | 474 kts | 160° |
| 2026-04-25 18:17 | 16.19163 | 98.28155 | 36924 ft | 474 kts | 160° |
| 2026-04-25 18:18 | 16.13106 | 98.30803 | 36918 ft | 474 kts | 160° |
| 2026-04-25 18:18 | 16.07024 | 98.33459 | 36921 ft | 473 kts | 160° |
| 2026-04-25 18:19 | 16.00931 | 98.36116 | 36936 ft | 473 kts | 160° |
| 2026-04-25 18:19 | 15.94849 | 98.38776 | 36936 ft | 473 kts | 160° |
| 2026-04-25 18:20 | 15.88810 | 98.41416 | 36935 ft | 473 kts | 160° |
| 2026-04-25 18:20 | 15.82722 | 98.44066 | 36926 ft | 473 kts | 159° |
| 2026-04-25 18:21 | 15.76700 | 98.46697 | 36935 ft | 472 kts | 159° |
| 2026-04-25 18:21 | 15.70637 | 98.49347 | 36953 ft | 471 kts | 160° |
| 2026-04-25 18:22 | 15.64581 | 98.51972 | 36953 ft | 471 kts | 160° |
| 2026-04-25 18:22 | 15.58570 | 98.54574 | 36956 ft | 471 kts | 160° |
| 2026-04-25 18:23 | 15.52526 | 98.57215 | 36953 ft | 471 kts | 158° |
| 2026-04-25 18:23 | 15.47018 | 98.60892 | 36947 ft | 474 kts | 138° |
| 2026-04-25 18:24 | 15.42665 | 98.66034 | 36967 ft | 474 kts | 129° |
| 2026-04-25 18:24 | 15.38517 | 98.71336 | 36968 ft | 474 kts | 129° |
| 2026-04-25 18:25 | 15.34360 | 98.76640 | 36939 ft | 474 kts | 129° |
| 2026-04-25 18:25 | 15.32308 | 98.79259 | 36702 ft | 474 kts | 129° |
| 2026-04-25 18:25 | 15.30227 | 98.81916 | 36429 ft | 474 kts | 129° |
| 2026-04-25 18:25 | 15.28148 | 98.84570 | 35835 ft | 474 kts | 129° |
| 2026-04-25 18:26 | 15.26067 | 98.87222 | 35289 ft | 472 kts | 128° |
| 2026-04-25 18:26 | 15.23988 | 98.89864 | 34723 ft | 472 kts | 128° |
| 2026-04-25 18:26 | 15.22615 | 98.91610 | 34347 ft | 471 kts | 128° |
| 2026-04-25 18:26 | 15.19869 | 98.95100 | 33543 ft | 471 kts | 128° |
| 2026-04-25 18:27 | 15.17795 | 98.97736 | 32976 ft | 469 kts | 128° |
| 2026-04-25 18:27 | 15.16433 | 98.99469 | 32607 ft | 468 kts | 128° |
| 2026-04-25 18:27 | 15.14377 | 99.02089 | 32044 ft | 466 kts | 128° |
| 2026-04-25 18:27 | 15.12330 | 99.04697 | 31486 ft | 465 kts | 128° |
| 2026-04-25 18:28 | 15.10294 | 99.07290 | 30941 ft | 463 kts | 128° |
| 2026-04-25 18:28 | 15.08262 | 99.09873 | 30395 ft | 461 kts | 128° |
| 2026-04-25 18:28 | 15.05583 | 99.13276 | 29637 ft | 459 kts | 128° |
| 2026-04-25 18:29 | 15.01594 | 99.18343 | 28629 ft | 449 kts | 129° |
| 2026-04-25 18:29 | 15.00284 | 99.20005 | 28301 ft | 446 kts | 129° |
| 2026-04-25 18:30 | 14.94480 | 99.27370 | 26814 ft | 433 kts | 129° |
| 2026-04-25 18:30 | 14.92612 | 99.29747 | 26326 ft | 429 kts | 129° |
| 2026-04-25 18:30 | 14.90708 | 99.32164 | 25829 ft | 426 kts | 129° |
| 2026-04-25 18:30 | 14.88865 | 99.34496 | 25397 ft | 421 kts | 129° |
| 2026-04-25 18:31 | 14.87012 | 99.36840 | 24947 ft | 417 kts | 129° |
| 2026-04-25 18:31 | 14.85196 | 99.39139 | 24359 ft | 409 kts | 129° |
| 2026-04-25 18:31 | 14.83412 | 99.41398 | 23802 ft | 398 kts | 129° |
| 2026-04-25 18:31 | 14.81704 | 99.43559 | 23294 ft | 386 kts | 129° |
| 2026-04-25 18:32 | 14.80030 | 99.45674 | 22815 ft | 373 kts | 129° |
| 2026-04-25 18:32 | 14.78396 | 99.47737 | 22363 ft | 370 kts | 129° |
| 2026-04-25 18:32 | 14.76771 | 99.49789 | 21915 ft | 369 kts | 129° |
| 2026-04-25 18:32 | 14.75149 | 99.51839 | 21465 ft | 367 kts | 129° |
| 2026-04-25 18:33 | 14.73531 | 99.53883 | 21028 ft | 366 kts | 129° |
| 2026-04-25 18:33 | 14.71917 | 99.55921 | 20586 ft | 365 kts | 129° |
| 2026-04-25 18:33 | 14.70330 | 99.57928 | 20157 ft | 364 kts | 129° |
| 2026-04-25 18:33 | 14.68727 | 99.59958 | 19720 ft | 364 kts | 129° |
| 2026-04-25 18:34 | 14.67127 | 99.61981 | 19286 ft | 363 kts | 129° |
| 2026-04-25 18:34 | 14.65526 | 99.64003 | 18853 ft | 363 kts | 129° |
| 2026-04-25 18:34 | 14.63931 | 99.66017 | 18421 ft | 362 kts | 129° |
| 2026-04-25 18:34 | 14.62330 | 99.68038 | 17950 ft | 362 kts | 129° |
| 2026-04-25 18:35 | 14.60740 | 99.70049 | 17509 ft | 360 kts | 129° |
| 2026-04-25 18:35 | 14.59157 | 99.72049 | 17084 ft | 358 kts | 129° |
| 2026-04-25 18:35 | 14.57580 | 99.74036 | 16663 ft | 356 kts | 129° |
| 2026-04-25 18:35 | 14.56029 | 99.75987 | 16246 ft | 355 kts | 129° |
| 2026-04-25 18:36 | 14.54462 | 99.77957 | 15838 ft | 353 kts | 129° |
| 2026-04-25 18:36 | 14.52905 | 99.79917 | 15434 ft | 352 kts | 129° |
| 2026-04-25 18:36 | 14.51349 | 99.81875 | 15028 ft | 351 kts | 129° |
| 2026-04-25 18:36 | 14.49821 | 99.83801 | 14635 ft | 349 kts | 129° |
| 2026-04-25 18:37 | 14.48287 | 99.85736 | 14273 ft | 347 kts | 129° |
| 2026-04-25 18:37 | 14.46779 | 99.87637 | 13838 ft | 337 kts | 129° |
| 2026-04-25 18:37 | 14.45316 | 99.89478 | 13397 ft | 326 kts | 130° |
| 2026-04-25 18:37 | 14.43824 | 99.91179 | 13013 ft | 313 kts | 139° |
| 2026-04-25 18:38 | 14.42174 | 99.92589 | 12646 ft | 311 kts | 141° |
| 2026-04-25 18:38 | 14.40496 | 99.94011 | 12251 ft | 311 kts | 141° |
| 2026-04-25 18:38 | 14.38823 | 99.95436 | 11880 ft | 311 kts | 140° |
| 2026-04-25 18:38 | 14.37149 | 99.96863 | 11484 ft | 311 kts | 140° |
| 2026-04-25 18:39 | 14.35480 | 99.98288 | 11123 ft | 311 kts | 140° |
| 2026-04-25 18:39 | 14.33816 | 99.99708 | 10764 ft | 309 kts | 140° |
| 2026-04-25 18:39 | 14.32157 | 100.01125 | 10373 ft | 309 kts | 140° |
| 2026-04-25 18:39 | 14.30543 | 100.02503 | 10215 ft | 299 kts | 140° |
| 2026-04-25 18:40 | 14.28950 | 100.03862 | 9674 ft | 295 kts | 140° |
| 2026-04-25 18:40 | 14.27545 | 100.05353 | 9214 ft | 285 kts | 126° |
| 2026-04-25 18:40 | 14.26608 | 100.07132 | 8915 ft | 281 kts | 110° |
| 2026-04-25 18:40 | 14.26158 | 100.09091 | 8857 ft | 287 kts | 97° |
| 2026-04-25 18:41 | 14.25908 | 100.11137 | 8791 ft | 288 kts | 98° |
| 2026-04-25 18:41 | 14.25652 | 100.13190 | 8727 ft | 288 kts | 98° |
| 2026-04-25 18:41 | 14.25391 | 100.15247 | 8666 ft | 288 kts | 98° |
| 2026-04-25 18:41 | 14.25140 | 100.17219 | 8605 ft | 288 kts | 98° |
| 2026-04-25 18:42 | 14.24880 | 100.19261 | 8521 ft | 287 kts | 98° |
| 2026-04-25 18:42 | 14.24708 | 100.20616 | 8469 ft | 287 kts | 98° |
| 2026-04-25 18:42 | 14.24367 | 100.23328 | 8369 ft | 288 kts | 98° |
| 2026-04-25 18:42 | 14.24111 | 100.25377 | 8292 ft | 287 kts | 98° |
| 2026-04-25 18:43 | 14.23853 | 100.27422 | 8215 ft | 287 kts | 98° |
| 2026-04-25 18:43 | 14.23597 | 100.29457 | 8139 ft | 287 kts | 98° |
| 2026-04-25 18:43 | 14.23341 | 100.31500 | 8060 ft | 287 kts | 98° |
| 2026-04-25 18:43 | 14.23085 | 100.33537 | 7971 ft | 286 kts | 98° |
| 2026-04-25 18:44 | 14.22828 | 100.35575 | 7880 ft | 286 kts | 98° |
| 2026-04-25 18:44 | 14.22571 | 100.37604 | 7783 ft | 286 kts | 98° |
| 2026-04-25 18:44 | 14.22317 | 100.39624 | 7687 ft | 279 kts | 98° |
| 2026-04-25 18:44 | 14.22078 | 100.41546 | 7565 ft | 268 kts | 99° |
| 2026-04-25 18:45 | 14.21846 | 100.43412 | 7437 ft | 257 kts | 98° |
| 2026-04-25 18:45 | 14.21620 | 100.45223 | 7220 ft | 251 kts | 98° |
| 2026-04-25 18:45 | 14.21395 | 100.46996 | 7103 ft | 249 kts | 98° |
| 2026-04-25 18:45 | 14.21171 | 100.48767 | 6986 ft | 248 kts | 98° |
| 2026-04-25 18:46 | 14.20948 | 100.50533 | 6867 ft | 248 kts | 99° |
| 2026-04-25 18:46 | 14.20715 | 100.52301 | 6747 ft | 248 kts | 103° |
| 2026-04-25 18:46 | 14.20082 | 100.53897 | 6641 ft | 244 kts | 126° |
| 2026-04-25 18:46 | 14.19037 | 100.55267 | 6444 ft | 242 kts | 130° |
| 2026-04-25 18:47 | 14.17970 | 100.56623 | 6082 ft | 243 kts | 130° |
| 2026-04-25 18:47 | 14.16899 | 100.57974 | 5710 ft | 245 kts | 130° |
| 2026-04-25 18:47 | 14.15838 | 100.59310 | 5320 ft | 240 kts | 129° |
| 2026-04-25 18:47 | 14.14795 | 100.60626 | 4956 ft | 234 kts | 130° |
| 2026-04-25 18:48 | 14.13764 | 100.61931 | 4589 ft | 236 kts | 130° |
| 2026-04-25 18:48 | 14.12716 | 100.63255 | 4187 ft | 239 kts | 130° |
| 2026-04-25 18:48 | 14.11654 | 100.64594 | 3800 ft | 241 kts | 130° |
| 2026-04-25 18:48 | 14.10604 | 100.65916 | 3625 ft | 232 kts | 130° |
| 2026-04-25 18:49 | 14.09608 | 100.67131 | 3557 ft | 212 kts | 137° |
| 2026-04-25 18:49 | 14.08454 | 100.67993 | 3260 ft | 202 kts | 154° |
| 2026-04-25 18:49 | 14.07148 | 100.68404 | 3009 ft | 189 kts | 173° |
| 2026-04-25 18:49 | 14.05897 | 100.68390 | 2792 ft | 177 kts | 189° |
| 2026-04-25 18:50 | 14.04754 | 100.68033 | 2593 ft | 167 kts | 205° |
| 2026-04-25 18:50 | 14.03750 | 100.67480 | 2398 ft | 162 kts | 207° |
| 2026-04-25 18:50 | 14.02785 | 100.66938 | 2231 ft | 152 kts | 208° |
| 2026-04-25 18:50 | 14.01889 | 100.66435 | 2016 ft | 146 kts | 208° |
| 2026-04-25 18:51 | 14.00997 | 100.65934 | 1814 ft | 144 kts | 208° |
| 2026-04-25 18:51 | 14.00414 | 100.65606 | 1701 ft | 144 kts | 208° |
| 2026-04-25 18:51 | 13.99235 | 100.64945 | 1449 ft | 144 kts | 208° |
| 2026-04-25 18:51 | 13.98358 | 100.64452 | 1263 ft | 143 kts | 209° |
| 2026-04-25 18:52 | 13.97488 | 100.63964 | 1068 ft | 142 kts | 209° |
| 2026-04-25 18:52 | 13.96627 | 100.63481 | 893 ft | 141 kts | 209° |
| 2026-04-25 18:52 | 13.95765 | 100.62997 | 728 ft | 139 kts | 208° |
| 2026-04-25 18:52 | 13.94931 | 100.62529 | 566 ft | 139 kts | 208° |
| 2026-04-25 18:53 | 13.94084 | 100.62059 | 349 ft | 139 kts | 207° |
| 2026-04-25 18:53 | 13.93240 | 100.61582 | 199 ft | 137 kts | 209° |
| 2026-04-25 18:53 | 13.92403 | 100.61098 | 32 ft | 138 kts | 209° |
| 2026-04-25 18:53 | 13.91672 | 100.60700 | 15 ft | 93 kts | 208° |
| 2026-04-25 18:54 | 13.91132 | 100.60346 | 17 ft | 26 kts | 233° |
| 2026-04-25 18:54 | 13.91115 | 100.60230 | 18 ft | 17 kts | 329° |
| 2026-04-25 18:54 | 13.91215 | 100.60245 | 17 ft | 14 kts | 28° |
| 2026-04-25 18:55 | 13.91293 | 100.60298 | 17 ft | 13 kts | 29° |
| 2026-04-25 18:55 | 13.91366 | 100.60339 | 17 ft | 11 kts | 28° |
| 2026-04-25 18:55 | 13.91433 | 100.60376 | 17 ft | 10 kts | 28° |
| 2026-04-25 18:55 | 13.91493 | 100.60410 | 17 ft | 9 kts | 28° |
| 2026-04-25 18:56 | 13.91547 | 100.60441 | 17 ft | 8 kts | 28° |
| 2026-04-25 18:56 | 13.91596 | 100.60468 | 19 ft | 9 kts | 29° |
| 2026-04-25 18:56 | 13.91664 | 100.60506 | 17 ft | 13 kts | 28° |
| 2026-04-25 18:56 | 13.91751 | 100.60555 | 17 ft | 15 kts | 28° |
| 2026-04-25 18:57 | 13.91843 | 100.60607 | 17 ft | 15 kts | 27° |
| 2026-04-25 18:57 | 13.91931 | 100.60656 | 18 ft | 13 kts | 28° |
| 2026-04-25 18:57 | 13.92007 | 100.60699 | 18 ft | 12 kts | 29° |
| 2026-04-25 18:57 | 13.92030 | 100.60712 | 18 ft | 11 kts | 29° |
| 2026-04-25 18:58 | 13.92110 | 100.60659 | 18 ft | 8 kts | 298° |
| 2026-04-25 18:58 | 13.92159 | 100.60574 | 17 ft | 5 kts | 316° |
| 2026-04-25 18:58 | 13.92204 | 100.60570 | 17 ft | 8 kts | 11° |
| 2026-04-25 18:59 | 13.92259 | 100.60631 | 17 ft | 5 kts | 103° |
| 2026-04-25 18:59 | 13.92236 | 100.60674 | 19 ft | 1 kts | 119° |